sensor_id;sensor_type;location;lat;lon;timestamp;temperature;humidity
80706;DHT22;70229;48.010;7.852;2024-03-02T00:00:21;5.80;99.90
80706;DHT22;70229;48.010;7.852;2024-03-02T00:02:49;5.70;99.90
80706;DHT22;70229;48.010;7.852;2024-03-02T00:05:16;7.10;99.90
80706;DHT22;70229;48.010;7.852;2024-03-02T00:07:44;5.70;99.90
80706;DHT22;70229;48.010;7.852;2024-03-02T00:10:14;5.70;99.90
80706;DHT22;70229;48.010;7.852;2024-03-02T00:12:42;5.80;99.90
80706;DHT22;70229;48.010;7.852;2024-03-02T00:18:02;5.70;99.90
80706;DHT22;70229;48.010;7.852;2024-03-02T00:20:29;5.80;99.90
80706;DHT22;70229;48.010;7.852;2024-03-02T00:23:05;6.70;99.90
80706;DHT22;70229;48.010;7.852;2024-03-02T00:25:52;5.80;99.90
80706;DHT22;70229;48.010;7.852;2024-03-02T00:28:24;5.80;99.90
80706;DHT22;70229;48.010;7.852;2024-03-02T00:30:59;5.80;99.90
80706;DHT22;70229;48.010;7.852;2024-03-02T00:33:31;5.90;99.90
80706;DHT22;70229;48.010;7.852;2024-03-02T00:35:57;6.20;99.90
80706;DHT22;70229;48.010;7.852;2024-03-02T00:38:23;6.20;99.90
80706;DHT22;70229;48.010;7.852;2024-03-02T00:40:49;6.20;99.90
80706;DHT22;70229;48.010;7.852;2024-03-02T00:43:36;6.20;99.90
80706;DHT22;70229;48.010;7.852;2024-03-02T00:46:04;6.20;99.90
80706;DHT22;70229;48.010;7.852;2024-03-02T00:48:30;7.30;99.90
80706;DHT22;70229;48.010;7.852;2024-03-02T00:51:01;6.10;99.90
80706;DHT22;70229;48.010;7.852;2024-03-02T00:53:29;6.00;99.90
80706;DHT22;70229;48.010;7.852;2024-03-02T00:55:56;5.90;99.90
80706;DHT22;70229;48.010;7.852;2024-03-02T00:58:22;5.80;99.90
80706;DHT22;70229;48.010;7.852;2024-03-02T01:00:47;5.70;99.90
80706;DHT22;70229;48.010;7.852;2024-03-02T01:03:13;5.60;99.90
80706;DHT22;70229;48.010;7.852;2024-03-02T01:05:45;6.50;99.90
80706;DHT22;70229;48.010;7.852;2024-03-02T01:08:11;5.50;99.90
80706;DHT22;70229;48.010;7.852;2024-03-02T01:10:36;5.40;99.90
80706;DHT22;70229;48.010;7.852;2024-03-02T01:13:02;5.40;99.90
80706;DHT22;70229;48.010;7.852;2024-03-02T01:15:28;5.40;99.90
80706;DHT22;70229;48.010;7.852;2024-03-02T01:17:53;6.80;99.90
80706;DHT22;70229;48.010;7.852;2024-03-02T01:20:19;6.10;99.90
80706;DHT22;70229;48.010;7.852;2024-03-02T01:22:45;5.30;99.90
80706;DHT22;70229;48.010;7.852;2024-03-02T01:25:10;5.20;99.90
80706;DHT22;70229;48.010;7.852;2024-03-02T01:27:36;5.30;99.90
80706;DHT22;70229;48.010;7.852;2024-03-02T01:30:02;6.90;99.90
80706;DHT22;70229;48.010;7.852;2024-03-02T01:32:27;5.30;99.90
80706;DHT22;70229;48.010;7.852;2024-03-02T01:34:53;5.20;99.90
80706;DHT22;70229;48.010;7.852;2024-03-02T01:37:18;5.20;99.90
80706;DHT22;70229;48.010;7.852;2024-03-02T01:39:44;5.10;99.90
80706;DHT22;70229;48.010;7.852;2024-03-02T01:42:09;5.10;99.90
80706;DHT22;70229;48.010;7.852;2024-03-02T01:44:36;5.20;99.90
80706;DHT22;70229;48.010;7.852;2024-03-02T01:47:02;5.10;99.90
80706;DHT22;70229;48.010;7.852;2024-03-02T01:49:27;5.10;99.90
80706;DHT22;70229;48.010;7.852;2024-03-02T01:51:53;5.10;99.90
80706;DHT22;70229;48.010;7.852;2024-03-02T01:54:18;5.10;99.90
80706;DHT22;70229;48.010;7.852;2024-03-02T01:56:44;5.00;99.90
80706;DHT22;70229;48.010;7.852;2024-03-02T01:59:10;5.10;99.90
80706;DHT22;70229;48.010;7.852;2024-03-02T02:01:36;5.00;99.90
80706;DHT22;70229;48.010;7.852;2024-03-02T02:04:02;5.10;99.90
80706;DHT22;70229;48.010;7.852;2024-03-02T02:06:27;5.00;99.90
80706;DHT22;70229;48.010;7.852;2024-03-02T02:08:53;5.00;99.90
80706;DHT22;70229;48.010;7.852;2024-03-02T02:11:19;5.00;99.90
80706;DHT22;70229;48.010;7.852;2024-03-02T02:13:44;5.00;99.90
80706;DHT22;70229;48.010;7.852;2024-03-02T02:16:10;5.00;99.90
80706;DHT22;70229;48.010;7.852;2024-03-02T02:18:36;5.00;99.90
80706;DHT22;70229;48.010;7.852;2024-03-02T02:21:02;5.10;99.90
80706;DHT22;70229;48.010;7.852;2024-03-02T02:23:28;5.00;99.90
80706;DHT22;70229;48.010;7.852;2024-03-02T02:25:54;5.20;99.90
80706;DHT22;70229;48.010;7.852;2024-03-02T02:28:20;4.90;99.90
80706;DHT22;70229;48.010;7.852;2024-03-02T02:30:45;5.30;99.90
80706;DHT22;70229;48.010;7.852;2024-03-02T02:33:11;4.90;99.90
80706;DHT22;70229;48.010;7.852;2024-03-02T02:35:36;5.90;99.90
80706;DHT22;70229;48.010;7.852;2024-03-02T02:38:03;5.00;99.90
80706;DHT22;70229;48.010;7.852;2024-03-02T02:40:28;4.90;99.90
80706;DHT22;70229;48.010;7.852;2024-03-02T02:42:57;4.90;99.90
80706;DHT22;70229;48.010;7.852;2024-03-02T02:45:24;4.90;99.90
80706;DHT22;70229;48.010;7.852;2024-03-02T02:47:50;4.90;99.90
80706;DHT22;70229;48.010;7.852;2024-03-02T02:50:16;5.90;99.90
80706;DHT22;70229;48.010;7.852;2024-03-02T02:52:42;5.10;99.90
80706;DHT22;70229;48.010;7.852;2024-03-02T02:55:09;4.90;99.90
80706;DHT22;70229;48.010;7.852;2024-03-02T02:57:35;5.00;99.90
80706;DHT22;70229;48.010;7.852;2024-03-02T03:00:08;5.00;99.90
80706;DHT22;70229;48.010;7.852;2024-03-02T03:02:41;5.10;99.90
80706;DHT22;70229;48.010;7.852;2024-03-02T03:05:11;5.20;99.90
80706;DHT22;70229;48.010;7.852;2024-03-02T03:07:37;5.20;99.90
80706;DHT22;70229;48.010;7.852;2024-03-02T03:10:04;5.20;99.90
80706;DHT22;70229;48.010;7.852;2024-03-02T03:12:30;5.20;99.90
80706;DHT22;70229;48.010;7.852;2024-03-02T03:14:56;5.20;99.90
80706;DHT22;70229;48.010;7.852;2024-03-02T03:17:22;6.40;99.90
80706;DHT22;70229;48.010;7.852;2024-03-02T03:19:48;5.40;99.90
80706;DHT22;70229;48.010;7.852;2024-03-02T03:22:14;5.40;99.90
80706;DHT22;70229;48.010;7.852;2024-03-02T03:24:40;5.40;99.90
80706;DHT22;70229;48.010;7.852;2024-03-02T03:27:05;6.50;99.90
80706;DHT22;70229;48.010;7.852;2024-03-02T03:29:31;5.30;99.90
80706;DHT22;70229;48.010;7.852;2024-03-02T03:31:56;5.40;99.90
80706;DHT22;70229;48.010;7.852;2024-03-02T03:34:22;5.80;99.90
80706;DHT22;70229;48.010;7.852;2024-03-02T03:36:47;5.60;99.90
80706;DHT22;70229;48.010;7.852;2024-03-02T03:39:13;5.50;99.90
80706;DHT22;70229;48.010;7.852;2024-03-02T03:41:40;5.40;99.90
80706;DHT22;70229;48.010;7.852;2024-03-02T03:44:06;5.50;99.90
80706;DHT22;70229;48.010;7.852;2024-03-02T03:46:31;5.90;99.90
80706;DHT22;70229;48.010;7.852;2024-03-02T03:48:57;6.20;99.90
80706;DHT22;70229;48.010;7.852;2024-03-02T03:51:22;5.50;99.90
80706;DHT22;70229;48.010;7.852;2024-03-02T03:53:48;6.80;99.90
80706;DHT22;70229;48.010;7.852;2024-03-02T03:56:14;5.60;99.90
80706;DHT22;70229;48.010;7.852;2024-03-02T03:58:39;5.60;99.90
80706;DHT22;70229;48.010;7.852;2024-03-02T04:01:05;5.60;99.90
80706;DHT22;70229;48.010;7.852;2024-03-02T04:03:30;6.70;99.90
80706;DHT22;70229;48.010;7.852;2024-03-02T04:05:56;5.60;99.90
80706;DHT22;70229;48.010;7.852;2024-03-02T04:08:22;5.60;99.90
80706;DHT22;70229;48.010;7.852;2024-03-02T04:10:48;5.80;99.90
80706;DHT22;70229;48.010;7.852;2024-03-02T04:13:13;6.90;99.90
80706;DHT22;70229;48.010;7.852;2024-03-02T04:15:39;7.40;99.90
80706;DHT22;70229;48.010;7.852;2024-03-02T04:18:06;5.80;99.90
80706;DHT22;70229;48.010;7.852;2024-03-02T04:20:31;5.80;99.90
80706;DHT22;70229;48.010;7.852;2024-03-02T04:22:57;5.90;99.90
80706;DHT22;70229;48.010;7.852;2024-03-02T04:25:23;5.90;99.90
80706;DHT22;70229;48.010;7.852;2024-03-02T04:27:48;5.90;99.90
80706;DHT22;70229;48.010;7.852;2024-03-02T04:30:14;6.90;99.90
80706;DHT22;70229;48.010;7.852;2024-03-02T04:32:39;5.90;99.90
80706;DHT22;70229;48.010;7.852;2024-03-02T04:35:05;6.00;99.90
80706;DHT22;70229;48.010;7.852;2024-03-02T04:37:34;6.00;99.90
80706;DHT22;70229;48.010;7.852;2024-03-02T04:40:00;7.30;99.90
80706;DHT22;70229;48.010;7.852;2024-03-02T04:42:25;5.80;99.90
80706;DHT22;70229;48.010;7.852;2024-03-02T04:44:51;6.80;99.90
80706;DHT22;70229;48.010;7.852;2024-03-02T04:47:16;5.80;99.90
80706;DHT22;70229;48.010;7.852;2024-03-02T04:49:42;5.80;99.90
80706;DHT22;70229;48.010;7.852;2024-03-02T04:52:08;5.70;99.90
80706;DHT22;70229;48.010;7.852;2024-03-02T04:54:34;5.70;99.90
80706;DHT22;70229;48.010;7.852;2024-03-02T04:57:19;5.70;99.90
80706;DHT22;70229;48.010;7.852;2024-03-02T04:59:45;5.70;99.90
80706;DHT22;70229;48.010;7.852;2024-03-02T05:02:10;5.70;99.90
80706;DHT22;70229;48.010;7.852;2024-03-02T05:04:36;5.70;99.90
80706;DHT22;70229;48.010;7.852;2024-03-02T05:07:01;5.80;99.90
80706;DHT22;70229;48.010;7.852;2024-03-02T05:09:27;7.40;99.90
80706;DHT22;70229;48.010;7.852;2024-03-02T05:11:53;7.40;99.90
80706;DHT22;70229;48.010;7.852;2024-03-02T05:14:36;5.80;99.90
80706;DHT22;70229;48.010;7.852;2024-03-02T05:17:02;6.40;99.90
80706;DHT22;70229;48.010;7.852;2024-03-02T05:19:28;5.80;99.90
80706;DHT22;70229;48.010;7.852;2024-03-02T05:21:53;6.90;99.90
80706;DHT22;70229;48.010;7.852;2024-03-02T05:24:19;5.80;99.90
80706;DHT22;70229;48.010;7.852;2024-03-02T05:26:44;5.90;99.90
80706;DHT22;70229;48.010;7.852;2024-03-02T05:29:10;5.90;99.90
80706;DHT22;70229;48.010;7.852;2024-03-02T05:31:35;6.00;99.90
80706;DHT22;70229;48.010;7.852;2024-03-02T05:34:01;6.00;99.90
80706;DHT22;70229;48.010;7.852;2024-03-02T05:36:27;6.20;99.90
80706;DHT22;70229;48.010;7.852;2024-03-02T05:38:52;6.40;99.90
80706;DHT22;70229;48.010;7.852;2024-03-02T05:41:18;6.20;99.90
80706;DHT22;70229;48.010;7.852;2024-03-02T05:43:43;7.20;99.90
80706;DHT22;70229;48.010;7.852;2024-03-02T05:46:09;6.40;99.90
80706;DHT22;70229;48.010;7.852;2024-03-02T05:48:35;7.60;99.90
80706;DHT22;70229;48.010;7.852;2024-03-02T05:51:00;6.60;99.90
80706;DHT22;70229;48.010;7.852;2024-03-02T05:53:26;8.30;99.90
80706;DHT22;70229;48.010;7.852;2024-03-02T05:55:51;7.70;99.90
80706;DHT22;70229;48.010;7.852;2024-03-02T05:58:20;6.80;99.90
80706;DHT22;70229;48.010;7.852;2024-03-02T06:00:46;6.90;99.90
80706;DHT22;70229;48.010;7.852;2024-03-02T06:03:11;6.90;99.90
80706;DHT22;70229;48.010;7.852;2024-03-02T06:05:37;7.20;99.90
80706;DHT22;70229;48.010;7.852;2024-03-02T06:08:03;7.00;99.90
80706;DHT22;70229;48.010;7.852;2024-03-02T06:10:29;7.10;99.90
80706;DHT22;70229;48.010;7.852;2024-03-02T06:12:54;7.10;99.90
80706;DHT22;70229;48.010;7.852;2024-03-02T06:15:20;7.10;99.90
80706;DHT22;70229;48.010;7.852;2024-03-02T06:17:45;7.50;99.90
80706;DHT22;70229;48.010;7.852;2024-03-02T06:20:11;7.10;99.90
80706;DHT22;70229;48.010;7.852;2024-03-02T06:22:37;7.10;99.90
80706;DHT22;70229;48.010;7.852;2024-03-02T06:25:02;7.20;99.90
80706;DHT22;70229;48.010;7.852;2024-03-02T06:27:28;7.20;99.90
80706;DHT22;70229;48.010;7.852;2024-03-02T06:29:53;7.20;99.90
80706;DHT22;70229;48.010;7.852;2024-03-02T06:32:20;7.30;99.90
80706;DHT22;70229;48.010;7.852;2024-03-02T06:34:45;7.30;99.90
80706;DHT22;70229;48.010;7.852;2024-03-02T06:37:11;7.30;99.90
80706;DHT22;70229;48.010;7.852;2024-03-02T06:39:36;7.30;99.90
80706;DHT22;70229;48.010;7.852;2024-03-02T06:42:02;7.30;99.90
80706;DHT22;70229;48.010;7.852;2024-03-02T06:44:28;7.40;99.90
80706;DHT22;70229;48.010;7.852;2024-03-02T06:46:54;7.40;99.90
80706;DHT22;70229;48.010;7.852;2024-03-02T06:49:19;7.50;99.90
80706;DHT22;70229;48.010;7.852;2024-03-02T06:51:45;9.00;99.90
80706;DHT22;70229;48.010;7.852;2024-03-02T06:54:10;7.50;99.90
80706;DHT22;70229;48.010;7.852;2024-03-02T06:56:36;8.20;99.90
80706;DHT22;70229;48.010;7.852;2024-03-02T06:59:02;7.50;99.90
80706;DHT22;70229;48.010;7.852;2024-03-02T07:01:28;8.60;99.90
80706;DHT22;70229;48.010;7.852;2024-03-02T07:03:53;7.60;99.90
80706;DHT22;70229;48.010;7.852;2024-03-02T07:06:19;7.60;99.90
80706;DHT22;70229;48.010;7.852;2024-03-02T07:08:45;7.70;99.90
80706;DHT22;70229;48.010;7.852;2024-03-02T07:11:10;8.20;99.90
80706;DHT22;70229;48.010;7.852;2024-03-02T07:13:36;7.80;99.90
80706;DHT22;70229;48.010;7.852;2024-03-02T07:16:01;8.40;99.90
80706;DHT22;70229;48.010;7.852;2024-03-02T07:18:36;7.80;99.90
80706;DHT22;70229;48.010;7.852;2024-03-02T07:21:10;7.90;99.90
80706;DHT22;70229;48.010;7.852;2024-03-02T07:23:36;8.00;99.90
80706;DHT22;70229;48.010;7.852;2024-03-02T07:26:02;8.00;99.90
80706;DHT22;70229;48.010;7.852;2024-03-02T07:28:28;8.10;99.90
80706;DHT22;70229;48.010;7.852;2024-03-02T07:30:58;9.60;99.90
80706;DHT22;70229;48.010;7.852;2024-03-02T07:33:24;8.20;99.90
80706;DHT22;70229;48.010;7.852;2024-03-02T07:35:50;8.30;99.90
80706;DHT22;70229;48.010;7.852;2024-03-02T07:38:15;8.30;99.90
80706;DHT22;70229;48.010;7.852;2024-03-02T07:40:42;9.90;99.90
80706;DHT22;70229;48.010;7.852;2024-03-02T07:43:08;9.70;99.90
80706;DHT22;70229;48.010;7.852;2024-03-02T07:45:34;9.40;99.90
80706;DHT22;70229;48.010;7.852;2024-03-02T07:48:01;8.90;99.90
80706;DHT22;70229;48.010;7.852;2024-03-02T07:50:29;9.10;99.90
80706;DHT22;70229;48.010;7.852;2024-03-02T07:52:55;9.00;99.90
80706;DHT22;70229;48.010;7.852;2024-03-02T07:55:21;9.30;99.90
80706;DHT22;70229;48.010;7.852;2024-03-02T07:57:49;9.50;99.90
80706;DHT22;70229;48.010;7.852;2024-03-02T08:00:15;10.50;99.90
80706;DHT22;70229;48.010;7.852;2024-03-02T08:02:41;9.50;99.90
80706;DHT22;70229;48.010;7.852;2024-03-02T08:05:07;9.50;99.90
80706;DHT22;70229;48.010;7.852;2024-03-02T08:07:34;9.70;99.90
80706;DHT22;70229;48.010;7.852;2024-03-02T08:09:59;9.80;99.90
80706;DHT22;70229;48.010;7.852;2024-03-02T08:12:25;9.90;99.90
80706;DHT22;70229;48.010;7.852;2024-03-02T08:14:50;10.00;99.90
80706;DHT22;70229;48.010;7.852;2024-03-02T08:17:16;10.00;99.90
80706;DHT22;70229;48.010;7.852;2024-03-02T08:19:42;10.20;99.90
80706;DHT22;70229;48.010;7.852;2024-03-02T08:22:08;10.20;99.90
80706;DHT22;70229;48.010;7.852;2024-03-02T08:24:34;10.20;99.90
80706;DHT22;70229;48.010;7.852;2024-03-02T08:27:00;10.30;99.90
80706;DHT22;70229;48.010;7.852;2024-03-02T08:29:26;10.50;99.90
80706;DHT22;70229;48.010;7.852;2024-03-02T08:31:51;10.60;99.90
80706;DHT22;70229;48.010;7.852;2024-03-02T08:34:17;10.70;99.90
80706;DHT22;70229;48.010;7.852;2024-03-02T08:36:42;10.90;99.90
80706;DHT22;70229;48.010;7.852;2024-03-02T08:39:08;10.90;99.90
80706;DHT22;70229;48.010;7.852;2024-03-02T08:41:44;12.60;99.90
80706;DHT22;70229;48.010;7.852;2024-03-02T08:44:10;11.30;99.90
80706;DHT22;70229;48.010;7.852;2024-03-02T08:46:35;11.30;99.90
80706;DHT22;70229;48.010;7.852;2024-03-02T08:49:01;11.40;99.90
80706;DHT22;70229;48.010;7.852;2024-03-02T08:51:27;12.10;99.90
80706;DHT22;70229;48.010;7.852;2024-03-02T08:53:53;11.60;99.90
80706;DHT22;70229;48.010;7.852;2024-03-02T08:56:18;12.10;99.90
80706;DHT22;70229;48.010;7.852;2024-03-02T08:58:45;11.60;99.90
80706;DHT22;70229;48.010;7.852;2024-03-02T09:01:11;11.70;99.90
80706;DHT22;70229;48.010;7.852;2024-03-02T09:03:37;11.70;99.90
80706;DHT22;70229;48.010;7.852;2024-03-02T09:06:03;11.80;99.90
80706;DHT22;70229;48.010;7.852;2024-03-02T09:08:28;11.90;99.90
80706;DHT22;70229;48.010;7.852;2024-03-02T09:10:55;11.90;99.90
80706;DHT22;70229;48.010;7.852;2024-03-02T09:13:21;12.40;99.90
80706;DHT22;70229;48.010;7.852;2024-03-02T09:15:47;12.70;99.90
80706;DHT22;70229;48.010;7.852;2024-03-02T09:18:13;12.30;99.90
80706;DHT22;70229;48.010;7.852;2024-03-02T09:20:39;12.70;99.90
80706;DHT22;70229;48.010;7.852;2024-03-02T09:23:04;12.50;99.90
80706;DHT22;70229;48.010;7.852;2024-03-02T09:25:30;13.50;99.90
80706;DHT22;70229;48.010;7.852;2024-03-02T09:27:56;12.60;99.90
80706;DHT22;70229;48.010;7.852;2024-03-02T09:30:21;12.60;99.90
80706;DHT22;70229;48.010;7.852;2024-03-02T09:32:47;12.80;99.90
80706;DHT22;70229;48.010;7.852;2024-03-02T09:35:13;12.60;99.90
80706;DHT22;70229;48.010;7.852;2024-03-02T09:37:38;12.80;99.90
80706;DHT22;70229;48.010;7.852;2024-03-02T09:40:04;12.90;99.90
80706;DHT22;70229;48.010;7.852;2024-03-02T09:42:31;13.00;99.90
80706;DHT22;70229;48.010;7.852;2024-03-02T09:44:57;13.10;99.90
80706;DHT22;70229;48.010;7.852;2024-03-02T09:47:23;13.20;99.90
80706;DHT22;70229;48.010;7.852;2024-03-02T09:49:49;14.20;99.90
80706;DHT22;70229;48.010;7.852;2024-03-02T09:52:14;13.80;99.90
80706;DHT22;70229;48.010;7.852;2024-03-02T09:54:41;13.90;99.90
80706;DHT22;70229;48.010;7.852;2024-03-02T09:57:07;13.90;99.90
80706;DHT22;70229;48.010;7.852;2024-03-02T09:59:32;14.00;99.90
80706;DHT22;70229;48.010;7.852;2024-03-02T10:01:59;14.30;99.60
80706;DHT22;70229;48.010;7.852;2024-03-02T10:04:26;14.50;99.70
80706;DHT22;70229;48.010;7.852;2024-03-02T10:07:08;14.80;98.00
80706;DHT22;70229;48.010;7.852;2024-03-02T10:09:34;14.80;97.40
80706;DHT22;70229;48.010;7.852;2024-03-02T10:12:07;15.00;97.80
80706;DHT22;70229;48.010;7.852;2024-03-02T10:14:33;15.20;98.30
80706;DHT22;70229;48.010;7.852;2024-03-02T10:17:03;15.40;96.90
80706;DHT22;70229;48.010;7.852;2024-03-02T10:19:29;15.10;96.40
80706;DHT22;70229;48.010;7.852;2024-03-02T10:22:06;15.50;96.60
80706;DHT22;70229;48.010;7.852;2024-03-02T10:24:37;15.60;96.10
80706;DHT22;70229;48.010;7.852;2024-03-02T10:27:17;15.10;94.20
80706;DHT22;70229;48.010;7.852;2024-03-02T10:29:46;15.00;94.10
80706;DHT22;70229;48.010;7.852;2024-03-02T10:32:12;15.10;94.40
80706;DHT22;70229;48.010;7.852;2024-03-02T10:34:40;15.40;93.30
80706;DHT22;70229;48.010;7.852;2024-03-02T10:37:06;15.70;93.70
80706;DHT22;70229;48.010;7.852;2024-03-02T10:39:34;16.40;92.50
80706;DHT22;70229;48.010;7.852;2024-03-02T10:42:02;15.50;91.90
80706;DHT22;70229;48.010;7.852;2024-03-02T10:44:29;15.80;93.10
80706;DHT22;70229;48.010;7.852;2024-03-02T10:46:55;16.00;91.30
80706;DHT22;70229;48.010;7.852;2024-03-02T10:49:23;16.00;91.20
80706;DHT22;70229;48.010;7.852;2024-03-02T10:51:49;15.00;91.90
80706;DHT22;70229;48.010;7.852;2024-03-02T10:54:15;16.30;92.80
80706;DHT22;70229;48.010;7.852;2024-03-02T10:56:42;16.40;91.10
80706;DHT22;70229;48.010;7.852;2024-03-02T10:59:35;16.00;92.60
80706;DHT22;70229;48.010;7.852;2024-03-02T11:02:02;16.30;90.40
80706;DHT22;70229;48.010;7.852;2024-03-02T11:04:30;16.30;91.00
80706;DHT22;70229;48.010;7.852;2024-03-02T11:07:08;16.40;89.80
80706;DHT22;70229;48.010;7.852;2024-03-02T11:09:38;16.80;89.60
80706;DHT22;70229;48.010;7.852;2024-03-02T11:12:18;17.30;90.10
80706;DHT22;70229;48.010;7.852;2024-03-02T11:14:44;17.40;85.00
80706;DHT22;70229;48.010;7.852;2024-03-02T11:17:11;17.50;86.30
80706;DHT22;70229;48.010;7.852;2024-03-02T11:19:39;17.70;84.40
80706;DHT22;70229;48.010;7.852;2024-03-02T11:22:06;17.80;84.20
80706;DHT22;70229;48.010;7.852;2024-03-02T11:24:32;17.40;81.80
80706;DHT22;70229;48.010;7.852;2024-03-02T11:27:01;17.40;82.40
80706;DHT22;70229;48.010;7.852;2024-03-02T11:32:05;17.50;82.30
80706;DHT22;70229;48.010;7.852;2024-03-02T11:34:34;17.60;84.20
80706;DHT22;70229;48.010;7.852;2024-03-02T11:37:01;17.80;84.40
80706;DHT22;70229;48.010;7.852;2024-03-02T11:39:28;18.00;81.60
80706;DHT22;70229;48.010;7.852;2024-03-02T11:41:57;18.10;83.80
80706;DHT22;70229;48.010;7.852;2024-03-02T11:44:24;18.60;83.60
80706;DHT22;70229;48.010;7.852;2024-03-02T11:47:01;18.40;78.50
80706;DHT22;70229;48.010;7.852;2024-03-02T11:49:37;18.50;80.00
80706;DHT22;70229;48.010;7.852;2024-03-02T11:52:05;18.40;79.90
80706;DHT22;70229;48.010;7.852;2024-03-02T11:54:33;19.10;84.20
80706;DHT22;70229;48.010;7.852;2024-03-02T11:57:01;19.20;77.90
80706;DHT22;70229;48.010;7.852;2024-03-02T11:59:29;19.40;77.80
80706;DHT22;70229;48.010;7.852;2024-03-02T12:01:55;19.70;76.00
80706;DHT22;70229;48.010;7.852;2024-03-02T12:04:21;19.50;75.20
80706;DHT22;70229;48.010;7.852;2024-03-02T12:06:55;19.50;72.60
80706;DHT22;70229;48.010;7.852;2024-03-02T12:09:21;19.40;74.80
80706;DHT22;70229;48.010;7.852;2024-03-02T12:11:47;19.20;73.30
80706;DHT22;70229;48.010;7.852;2024-03-02T12:14:12;19.50;71.50
80706;DHT22;70229;48.010;7.852;2024-03-02T12:16:38;19.70;71.40
80706;DHT22;70229;48.010;7.852;2024-03-02T12:19:05;18.70;70.30
80706;DHT22;70229;48.010;7.852;2024-03-02T12:21:31;18.90;71.00
80706;DHT22;70229;48.010;7.852;2024-03-02T12:23:57;19.10;71.10
80706;DHT22;70229;48.010;7.852;2024-03-02T12:26:23;18.90;70.30
80706;DHT22;70229;48.010;7.852;2024-03-02T12:28:49;19.20;71.70
80706;DHT22;70229;48.010;7.852;2024-03-02T12:31:15;19.20;68.40
80706;DHT22;70229;48.010;7.852;2024-03-02T12:33:41;19.20;70.90
80706;DHT22;70229;48.010;7.852;2024-03-02T12:36:09;19.80;71.90
80706;DHT22;70229;48.010;7.852;2024-03-02T12:38:37;19.70;68.40
80706;DHT22;70229;48.010;7.852;2024-03-02T12:41:03;19.60;68.60
80706;DHT22;70229;48.010;7.852;2024-03-02T12:43:31;19.70;69.40
80706;DHT22;70229;48.010;7.852;2024-03-02T12:46:00;19.60;69.20
80706;DHT22;70229;48.010;7.852;2024-03-02T12:48:25;19.90;67.80
80706;DHT22;70229;48.010;7.852;2024-03-02T12:50:51;20.10;66.50
80706;DHT22;70229;48.010;7.852;2024-03-02T12:53:17;20.80;67.30
80706;DHT22;70229;48.010;7.852;2024-03-02T12:55:42;21.20;65.70
80706;DHT22;70229;48.010;7.852;2024-03-02T12:58:19;20.90;63.30
80706;DHT22;70229;48.010;7.852;2024-03-02T13:00:46;21.30;63.50
80706;DHT22;70229;48.010;7.852;2024-03-02T13:03:11;21.10;62.00
80706;DHT22;70229;48.010;7.852;2024-03-02T13:05:37;21.10;60.70
80706;DHT22;70229;48.010;7.852;2024-03-02T13:08:05;21.40;62.80
80706;DHT22;70229;48.010;7.852;2024-03-02T13:10:32;21.70;61.30
80706;DHT22;70229;48.010;7.852;2024-03-02T13:12:58;21.10;60.20
80706;DHT22;70229;48.010;7.852;2024-03-02T13:15:26;20.80;60.40
80706;DHT22;70229;48.010;7.852;2024-03-02T13:17:52;20.40;60.00
80706;DHT22;70229;48.010;7.852;2024-03-02T13:20:18;20.30;61.40
80706;DHT22;70229;48.010;7.852;2024-03-02T13:22:44;20.50;59.50
80706;DHT22;70229;48.010;7.852;2024-03-02T13:25:10;20.20;59.80
80706;DHT22;70229;48.010;7.852;2024-03-02T13:27:36;20.20;59.20
80706;DHT22;70229;48.010;7.852;2024-03-02T13:30:03;20.10;59.20
80706;DHT22;70229;48.010;7.852;2024-03-02T13:32:31;19.90;59.20
80706;DHT22;70229;48.010;7.852;2024-03-02T13:34:57;19.80;58.80
80706;DHT22;70229;48.010;7.852;2024-03-02T13:37:22;19.50;58.80
80706;DHT22;70229;48.010;7.852;2024-03-02T13:39:48;19.20;59.10
80706;DHT22;70229;48.010;7.852;2024-03-02T13:42:14;19.20;60.40
80706;DHT22;70229;48.010;7.852;2024-03-02T13:44:43;19.10;60.50
80706;DHT22;70229;48.010;7.852;2024-03-02T13:47:10;18.60;60.50
80706;DHT22;70229;48.010;7.852;2024-03-02T13:49:36;18.90;61.90
80706;DHT22;70229;48.010;7.852;2024-03-02T13:52:04;18.60;62.50
80706;DHT22;70229;48.010;7.852;2024-03-02T13:54:37;17.80;64.50
80706;DHT22;70229;48.010;7.852;2024-03-02T13:57:03;17.50;66.20
80706;DHT22;70229;48.010;7.852;2024-03-02T13:59:29;17.50;67.90
80706;DHT22;70229;48.010;7.852;2024-03-02T14:01:54;17.40;67.90
80706;DHT22;70229;48.010;7.852;2024-03-02T14:04:20;17.40;69.10
80706;DHT22;70229;48.010;7.852;2024-03-02T14:06:46;18.10;70.30
80706;DHT22;70229;48.010;7.852;2024-03-02T14:09:11;17.00;68.80
80706;DHT22;70229;48.010;7.852;2024-03-02T14:11:37;15.80;69.20
80706;DHT22;70229;48.010;7.852;2024-03-02T14:14:02;17.10;69.90
80706;DHT22;70229;48.010;7.852;2024-03-02T14:16:28;16.60;70.50
80706;DHT22;70229;48.010;7.852;2024-03-02T14:18:54;16.60;71.10
80706;DHT22;70229;48.010;7.852;2024-03-02T14:21:19;16.80;70.90
80706;DHT22;70229;48.010;7.852;2024-03-02T14:23:45;18.00;71.10
80706;DHT22;70229;48.010;7.852;2024-03-02T14:26:10;15.60;69.90
80706;DHT22;70229;48.010;7.852;2024-03-02T14:28:36;17.50;71.60
80706;DHT22;70229;48.010;7.852;2024-03-02T14:31:01;16.10;71.50
80706;DHT22;70229;48.010;7.852;2024-03-02T14:33:28;16.10;71.70
80706;DHT22;70229;48.010;7.852;2024-03-02T14:35:53;17.50;72.90
80706;DHT22;70229;48.010;7.852;2024-03-02T14:38:20;17.50;73.60
80706;DHT22;70229;48.010;7.852;2024-03-02T14:40:45;17.70;73.80
80706;DHT22;70229;48.010;7.852;2024-03-02T14:43:11;16.30;73.10
80706;DHT22;70229;48.010;7.852;2024-03-02T14:45:36;15.90;72.00
80706;DHT22;70229;48.010;7.852;2024-03-02T14:48:02;15.80;72.60
80706;DHT22;70229;48.010;7.852;2024-03-02T14:50:28;15.80;72.70
80706;DHT22;70229;48.010;7.852;2024-03-02T14:52:54;16.00;72.70
80706;DHT22;70229;48.010;7.852;2024-03-02T14:55:23;15.60;74.40
80706;DHT22;70229;48.010;7.852;2024-03-02T14:57:49;15.60;73.40
80706;DHT22;70229;48.010;7.852;2024-03-02T15:00:15;15.60;73.60
80706;DHT22;70229;48.010;7.852;2024-03-02T15:02:41;15.60;74.90
80706;DHT22;70229;48.010;7.852;2024-03-02T15:05:07;15.60;76.90
80706;DHT22;70229;48.010;7.852;2024-03-02T15:07:32;15.50;75.70
80706;DHT22;70229;48.010;7.852;2024-03-02T15:09:58;15.60;75.00
80706;DHT22;70229;48.010;7.852;2024-03-02T15:12:24;15.60;75.00
80706;DHT22;70229;48.010;7.852;2024-03-02T15:14:49;15.60;77.00
80706;DHT22;70229;48.010;7.852;2024-03-02T15:17:16;16.00;75.40
80706;DHT22;70229;48.010;7.852;2024-03-02T15:19:45;15.70;76.20
80706;DHT22;70229;48.010;7.852;2024-03-02T15:22:11;15.50;77.60
80706;DHT22;70229;48.010;7.852;2024-03-02T15:24:37;15.40;77.80
80706;DHT22;70229;48.010;7.852;2024-03-02T15:27:03;15.40;78.80
80706;DHT22;70229;48.010;7.852;2024-03-02T15:29:36;15.40;77.20
80706;DHT22;70229;48.010;7.852;2024-03-02T15:32:05;15.40;78.00
80706;DHT22;70229;48.010;7.852;2024-03-02T15:34:32;15.30;77.80
80706;DHT22;70229;48.010;7.852;2024-03-02T15:36:58;16.60;80.10
80706;DHT22;70229;48.010;7.852;2024-03-02T15:39:24;15.80;80.30
80706;DHT22;70229;48.010;7.852;2024-03-02T15:41:49;15.60;79.90